Stations météo

Publicité
Kinbrace, Grande-Bretagne (99016): Température de l'air & dewpoint: 02.12.2019 10:00:00 - 08.12.2019 10:00:00 (GMT)Kinbrace, Grande-Bretagne (99016): Vitesse du vent & gusts: 02.12.2019 10:00:00 - 08.12.2019 10:00:00 (GMT)Kinbrace, Grande-Bretagne (99016): Direction du vent: 02.12.2019 10:00:00 - 08.12.2019 10:00:00 (GMT)Kinbrace, Grande-Bretagne (99016): Quantités de précipitations: 02.12.2019 10:00:00 - 08.12.2019 10:00:00 (GMT)
Date & Time tt [°C] td [°C] ff [km/h] ff [knt] fx [km/h] fx [knt] dd rr [mm]
08.12.2019 10:00:00 4,4 2,7 28 15 - - WSW 1,0
08.12.2019 09:00:00 4,5 2,3 21 11 50 27 WSW 0,2
08.12.2019 08:00:00 4,5 2,8 18 10 - - W 0,4
08.12.2019 07:00:00 4,9 2,6 26 14 46 25 WSW 0,2
08.12.2019 06:00:00 5,5 3,0 16 9 - - WSW 0,0
08.12.2019 05:00:00 6,0 1,7 31 17 50 27 W 0,0
08.12.2019 04:00:00 6,0 2,6 28 15 54 29 W 0,0
08.12.2019 03:00:00 6,5 3,7 41 22 59 32 WNW 0,2
08.12.2019 02:00:00 7,9 5,5 28 15 57 31 W 0,6
08.12.2019 01:00:00 10,0 8,7 9 5 - - SW 0,4
08.12.2019 00:00:00 10,5 8,8 8 4 - - SSW 0,0
07.12.2019 23:00:00 9,9 8,8 16 9 - - S 0,4
07.12.2019 22:00:00 10,0 8,8 21 11 - - S 0,2
07.12.2019 21:00:00 10,0 8,8 29 16 - - S 0,4
07.12.2019 20:00:00 9,5 8,6 26 14 - - SSE 0,6
07.12.2019 19:00:00 9,7 8,0 26 14 - - SSE 0,0
07.12.2019 18:00:00 9,6 7,6 24 13 - - SE 0,0
07.12.2019 17:00:00 7,7 6,8 26 14 - - SE 0,2
07.12.2019 16:00:00 6,9 6,1 31 17 - - SE 0,4
07.12.2019 15:00:00 6,3 5,6 28 15 - - SE 0,6
07.12.2019 14:00:00 5,8 5,2 26 14 - - SE 0,2
07.12.2019 13:00:00 5,8 4,9 24 13 - - SE 0,0
07.12.2019 12:00:00 4,8 4,1 13 7 - - ESE 0,8
07.12.2019 11:00:00 4,2 3,3 11 6 - - SE 0,6
07.12.2019 10:00:00 3,9 3,2 4 2 - - E 0,0
07.12.2019 09:00:00 3,5 3,0 4 2 - - ESE 0,0
07.12.2019 08:00:00 3,2 2,7 5 3 - - ENE 0,0
07.12.2019 07:00:00 3,2 2,7 9 5 - - NNW 0,0
07.12.2019 06:00:00 2,4 1,6 4 2 - - NW 0,0
07.12.2019 05:00:00 4,0 3,1 9 5 - - NW 0,6
07.12.2019 04:00:00 4,2 3,0 9 5 - - WSW 0,0
07.12.2019 03:00:00 3,6 3,0 4 2 - - W 0,2
07.12.2019 02:00:00 3,5 2,9 2 1 - - N 0,2
07.12.2019 01:00:00 3,0 2,1 8 4 - - WNW 0,2
07.12.2019 00:00:00 2,7 1,6 9 5 - - WNW 0,0
06.12.2019 23:00:00 2,3 1,3 5 3 - - NW 0,0
06.12.2019 22:00:00 3,4 2,1 8 4 - - NNW 0,0
06.12.2019 21:00:00 4,4 3,4 13 7 - - NW 0,0
06.12.2019 20:00:00 5,0 4,2 13 7 - - NW 0,2
06.12.2019 19:00:00 5,5 5,0 15 8 - - NW 0,0
06.12.2019 18:00:00 5,7 5,3 11 6 - - NNW 0,4
06.12.2019 17:00:00 6,2 5,8 18 10 - - N 3,0
06.12.2019 16:00:00 6,8 6,3 8 4 - - NNW 0,6
06.12.2019 15:00:00 8,1 6,8 9 5 - - NNW 0,0
06.12.2019 14:00:00 8,2 7,3 5 3 - - NW 0,2
06.12.2019 13:00:00 8,1 7,2 18 10 - - WNW 0,2
06.12.2019 12:00:00 8,6 7,0 13 7 - - WNW 0,0
06.12.2019 11:00:00 8,4 6,4 11 6 - - WNW 0,0
06.12.2019 10:00:00 8,3 6,9 9 5 - - W 0,0
06.12.2019 09:00:00 8,9 7,1 9 5 - - NW 0,0
06.12.2019 08:00:00 8,7 7,6 9 5 - - WNW 0,0
06.12.2019 07:00:00 8,8 7,3 8 4 - - NNW 0,0
06.12.2019 06:00:00 9,3 8,2 11 6 - - WSW 0,0
06.12.2019 05:00:00 9,4 7,9 9 5 - - WSW 0,0
06.12.2019 04:00:00 9,3 7,9 13 7 - - W 0,0
06.12.2019 03:00:00 9,4 7,8 4 2 - - W 0,0
06.12.2019 02:00:00 9,3 8,5 5 3 - - NW 0,0
06.12.2019 01:00:00 7,4 7,0 8 4 - - S 0,0
06.12.2019 00:00:00 6,9 6,6 8 4 - - S 0,0
05.12.2019 23:00:00 5,8 5,5 4 2 - - NW 0,2
05.12.2019 22:00:00 6,8 6,5 5 3 - - WNW 0,0
05.12.2019 21:00:00 7,3 6,9 15 8 - - NW 0,0
05.12.2019 20:00:00 7,7 7,2 18 10 - - NW 0,6
05.12.2019 19:00:00 8,6 8,1 13 7 - - NW 3,2
05.12.2019 18:00:00 8,8 8,2 5 3 - - WSW 2,2
05.12.2019 17:00:00 8,3 7,5 9 5 - - S 2,2
05.12.2019 16:00:00 7,9 6,9 16 9 - - SE 1,4
05.12.2019 15:00:00 7,6 6,5 21 11 - - SE 0,2
05.12.2019 14:00:00 8,2 6,0 21 11 - - SSE 0,0
05.12.2019 13:00:00 8,0 5,7 21 11 - - S 0,0
05.12.2019 12:00:00 8,3 5,8 16 9 - - S 0,0
05.12.2019 11:00:00 7,7 5,6 9 5 - - SSW 0,0
05.12.2019 10:00:00 8,2 5,7 22 12 48 26 W 0,0
05.12.2019 09:00:00 7,9 5,3 28 15 48 26 W 0,0
05.12.2019 08:00:00 7,7 4,4 28 15 46 25 W 0,0
05.12.2019 07:00:00 7,5 4,4 28 15 50 27 W 0,0
05.12.2019 06:00:00 7,1 3,9 24 13 50 27 WSW 0,0
05.12.2019 05:00:00 6,4 3,6 24 13 54 29 WSW 0,0
05.12.2019 04:00:00 6,1 3,5 28 15 50 27 W 0,0
05.12.2019 03:00:00 5,9 3,7 26 14 - - WSW 0,2
05.12.2019 02:00:00 5,4 3,0 24 13 50 27 WSW 0,2
05.12.2019 01:00:00 6,1 3,2 18 10 - - WSW 0,2
05.12.2019 00:00:00 3,9 1,8 8 4 - - SSW 0,0
04.12.2019 23:00:00 5,0 2,9 21 11 - - WSW 0,2
04.12.2019 22:00:00 4,5 1,6 13 7 - - SW 0,0
04.12.2019 21:00:00 4,9 1,8 21 11 - - WSW 0,2
04.12.2019 20:00:00 3,7 1,3 9 5 - - SW 0,0
04.12.2019 19:00:00 4,7 1,0 16 9 - - WSW 0,0
04.12.2019 18:00:00 5,7 2,1 22 12 - - WSW 0,0
04.12.2019 17:00:00 4,4 1,5 9 5 - - SSW 0,0
04.12.2019 16:00:00 5,0 2,1 9 5 - - SW 0,0
04.12.2019 15:00:00 6,6 2,7 18 10 - - SW 0,0
04.12.2019 14:00:00 7,1 3,8 13 7 - - WSW 0,0
04.12.2019 13:00:00 7,3 4,8 16 9 - - WSW 0,0
04.12.2019 12:00:00 7,4 5,1 11 6 - - W 1,0
04.12.2019 11:00:00 7,4 5,3 21 11 - - S 0,0
04.12.2019 10:00:00 7,0 4,4 21 11 - - S 0,0
04.12.2019 09:00:00 6,8 4,3 21 11 - - S 0,0
04.12.2019 08:00:00 6,7 4,2 18 10 - - S 0,0
04.12.2019 07:00:00 7,0 4,4 22 12 - - SSE 0,0
04.12.2019 06:00:00 6,9 4,4 22 12 - - SE 0,0
04.12.2019 05:00:00 7,1 4,3 16 9 - - SE 0,0
04.12.2019 04:00:00 6,8 3,9 21 11 - - SE 0,0
04.12.2019 03:00:00 6,7 3,1 21 11 - - SE 0,0
04.12.2019 02:00:00 6,4 2,3 24 13 - - SE 0,0
04.12.2019 01:00:00 6,2 2,3 28 15 - - SSE 0,0
04.12.2019 00:00:00 6,3 2,5 22 12 - - SSE 0,0
03.12.2019 23:00:00 6,2 2,1 26 14 - - SE 0,0
03.12.2019 22:00:00 3,8 1,9 5 3 - - SE 0,0
03.12.2019 21:00:00 2,0 0,9 4 2 - - SSE 0,0
03.12.2019 20:00:00 2,5 1,2 9 5 - - S 0,0
03.12.2019 19:00:00 2,8 2,2 4 2 - - SE 0,0
03.12.2019 18:00:00 2,6 1,9 8 4 - - S 0,0
03.12.2019 17:00:00 3,7 2,6 5 3 - - S 0,0
03.12.2019 16:00:00 5,1 3,4 4 2 - - S 0,0
03.12.2019 15:00:00 6,9 3,8 9 5 - - SSW 0,0
03.12.2019 14:00:00 8,3 4,7 22 12 - - S 0,0
03.12.2019 13:00:00 8,6 4,8 22 12 - - SSW 0,0
03.12.2019 12:00:00 8,8 4,6 11 6 - - SSW 0,0
03.12.2019 11:00:00 8,4 4,5 11 6 - - SSW 0,0
03.12.2019 10:00:00 8,4 4,2 9 5 - - ESE 0,0
03.12.2019 09:00:00 8,2 4,3 5 3 - - E 0,0
03.12.2019 08:00:00 8,3 4,4 11 6 - - ESE 0,0
03.12.2019 07:00:00 8,3 4,8 11 6 - - NNE 0,0
03.12.2019 06:00:00 8,6 4,8 11 6 - - E 0,0
03.12.2019 05:00:00 8,7 5,3 16 9 48 26 N 0,0
03.12.2019 04:00:00 8,0 5,0 13 7 - - W 0,0
03.12.2019 03:00:00 8,4 5,5 21 11 - - WNW 0,0
03.12.2019 02:00:00 8,3 5,5 28 15 - - WNW 0,0
03.12.2019 01:00:00 8,5 5,9 18 10 - - WNW 0,0
03.12.2019 00:00:00 9,2 6,1 15 8 - - W 0,0
02.12.2019 23:00:00 9,1 6,8 11 6 - - W 0,0
02.12.2019 22:00:00 9,2 7,4 15 8 - - W 0,0
02.12.2019 21:00:00 9,5 7,5 9 5 - - W 0,0
02.12.2019 20:00:00 9,6 7,9 13 7 - - W 0,2
02.12.2019 19:00:00 8,9 7,8 4 2 - - SW 1,8
02.12.2019 18:00:00 9,1 7,9 9 5 - - W 0,8
02.12.2019 17:00:00 8,8 7,6 16 9 - - WSW 1,0
02.12.2019 16:00:00 8,6 7,4 16 9 - - WSW 1,0
02.12.2019 15:00:00 7,0 6,1 13 7 - - S 1,4
02.12.2019 14:00:00 6,8 5,5 9 5 - - S 1,0
02.12.2019 13:00:00 6,5 5,1 5 3 - - S 0,2
02.12.2019 12:00:00 6,5 5,0 11 6 - - WSW 0,2
02.12.2019 11:00:00 6,3 4,9 13 7 - - WSW 0,0
02.12.2019 10:00:00 5,5 4,4 9 5 - - S 0,0

tt = Température de l'air
td = dewpoint
ff = Vitesse du vent
fx = gusts
dd = Direction du vent
rr = Quantités de précipitations

stations d'obs. à proximité